sensor_id;sensor_type;location;lat;lon;timestamp;temperature;humidity
19552;DHT22;9921;47.186;9.778;2022-07-29T00:01:49;19.30;99.90
19552;DHT22;9921;47.186;9.778;2022-07-29T00:04:19;19.20;99.90
19552;DHT22;9921;47.186;9.778;2022-07-29T00:06:46;19.20;99.90
19552;DHT22;9921;47.186;9.778;2022-07-29T00:09:13;18.90;99.90
19552;DHT22;9921;47.186;9.778;2022-07-29T00:11:40;18.90;99.90
19552;DHT22;9921;47.186;9.778;2022-07-29T00:14:08;18.90;99.90
19552;DHT22;9921;47.186;9.778;2022-07-29T00:16:35;18.90;99.90
19552;DHT22;9921;47.186;9.778;2022-07-29T00:19:02;18.90;99.90
19552;DHT22;9921;47.186;9.778;2022-07-29T00:21:30;18.90;99.90
19552;DHT22;9921;47.186;9.778;2022-07-29T00:23:57;18.90;99.90
19552;DHT22;9921;47.186;9.778;2022-07-29T00:26:24;18.90;99.90
19552;DHT22;9921;47.186;9.778;2022-07-29T00:28:53;19.00;99.90
19552;DHT22;9921;47.186;9.778;2022-07-29T00:31:20;19.10;99.90
19552;DHT22;9921;47.186;9.778;2022-07-29T00:33:46;19.10;99.90
19552;DHT22;9921;47.186;9.778;2022-07-29T00:36:13;19.10;99.90
19552;DHT22;9921;47.186;9.778;2022-07-29T00:38:41;19.10;99.90
19552;DHT22;9921;47.186;9.778;2022-07-29T00:41:10;19.00;99.90
19552;DHT22;9921;47.186;9.778;2022-07-29T00:43:37;19.00;99.90
19552;DHT22;9921;47.186;9.778;2022-07-29T00:46:04;18.90;99.90
19552;DHT22;9921;47.186;9.778;2022-07-29T00:48:31;18.80;99.90
19552;DHT22;9921;47.186;9.778;2022-07-29T00:51:00;18.80;99.90
19552;DHT22;9921;47.186;9.778;2022-07-29T00:53:27;18.90;99.90
19552;DHT22;9921;47.186;9.778;2022-07-29T00:55:56;18.70;99.90
19552;DHT22;9921;47.186;9.778;2022-07-29T00:58:24;18.70;99.90
19552;DHT22;9921;47.186;9.778;2022-07-29T01:00:51;18.60;99.90
19552;DHT22;9921;47.186;9.778;2022-07-29T01:03:18;18.60;99.90
19552;DHT22;9921;47.186;9.778;2022-07-29T01:05:45;18.70;99.90
19552;DHT22;9921;47.186;9.778;2022-07-29T01:08:14;18.70;99.90
19552;DHT22;9921;47.186;9.778;2022-07-29T01:10:42;18.60;99.90
19552;DHT22;9921;47.186;9.778;2022-07-29T01:13:12;18.70;99.90
19552;DHT22;9921;47.186;9.778;2022-07-29T01:15:44;18.70;99.90
19552;DHT22;9921;47.186;9.778;2022-07-29T01:18:17;18.70;99.90
19552;DHT22;9921;47.186;9.778;2022-07-29T01:21:02;18.80;99.90
19552;DHT22;9921;47.186;9.778;2022-07-29T01:23:52;18.80;99.90
19552;DHT22;9921;47.186;9.778;2022-07-29T01:29:29;18.70;99.90
19552;DHT22;9921;47.186;9.778;2022-07-29T01:32:00;18.60;99.90
19552;DHT22;9921;47.186;9.778;2022-07-29T01:34:33;18.60;99.90
19552;DHT22;9921;47.186;9.778;2022-07-29T01:37:06;18.50;99.90
19552;DHT22;9921;47.186;9.778;2022-07-29T01:39:36;18.40;99.90
19552;DHT22;9921;47.186;9.778;2022-07-29T01:42:10;18.30;99.90
19552;DHT22;9921;47.186;9.778;2022-07-29T01:44:45;17.80;99.90
19552;DHT22;9921;47.186;9.778;2022-07-29T01:47:19;17.50;99.90
19552;DHT22;9921;47.186;9.778;2022-07-29T01:49:50;17.50;99.90
19552;DHT22;9921;47.186;9.778;2022-07-29T01:52:21;17.50;99.90
19552;DHT22;9921;47.186;9.778;2022-07-29T01:54:54;17.60;99.90
19552;DHT22;9921;47.186;9.778;2022-07-29T01:57:26;17.70;99.90
19552;DHT22;9921;47.186;9.778;2022-07-29T01:59:57;17.70;99.90
19552;DHT22;9921;47.186;9.778;2022-07-29T02:02:26;17.80;99.90
19552;DHT22;9921;47.186;9.778;2022-07-29T02:04:54;17.80;99.90
19552;DHT22;9921;47.186;9.778;2022-07-29T02:07:24;17.90;99.90
19552;DHT22;9921;47.186;9.778;2022-07-29T02:09:53;17.70;99.90
19552;DHT22;9921;47.186;9.778;2022-07-29T02:12:20;17.60;99.90
19552;DHT22;9921;47.186;9.778;2022-07-29T02:14:51;17.60;99.90
19552;DHT22;9921;47.186;9.778;2022-07-29T02:17:23;17.70;99.90
19552;DHT22;9921;47.186;9.778;2022-07-29T02:19:52;17.70;99.90
19552;DHT22;9921;47.186;9.778;2022-07-29T02:22:22;17.60;99.90
19552;DHT22;9921;47.186;9.778;2022-07-29T02:24:50;17.60;99.90
19552;DHT22;9921;47.186;9.778;2022-07-29T02:27:19;17.50;99.90
19552;DHT22;9921;47.186;9.778;2022-07-29T02:29:47;17.50;99.90
19552;DHT22;9921;47.186;9.778;2022-07-29T02:32:16;17.40;99.90
19552;DHT22;9921;47.186;9.778;2022-07-29T02:34:46;17.40;99.90
19552;DHT22;9921;47.186;9.778;2022-07-29T02:37:16;17.50;99.90
19552;DHT22;9921;47.186;9.778;2022-07-29T02:39:43;17.40;99.90
19552;DHT22;9921;47.186;9.778;2022-07-29T02:42:14;17.40;99.90
19552;DHT22;9921;47.186;9.778;2022-07-29T02:44:42;17.50;99.90
19552;DHT22;9921;47.186;9.778;2022-07-29T02:47:13;17.50;99.90
19552;DHT22;9921;47.186;9.778;2022-07-29T02:49:52;17.60;99.90
19552;DHT22;9921;47.186;9.778;2022-07-29T02:52:26;17.40;99.90
19552;DHT22;9921;47.186;9.778;2022-07-29T02:54:55;17.40;99.90
19552;DHT22;9921;47.186;9.778;2022-07-29T02:57:30;17.30;99.90
19552;DHT22;9921;47.186;9.778;2022-07-29T03:00:01;17.10;99.90
19552;DHT22;9921;47.186;9.778;2022-07-29T03:02:34;17.20;99.90
19552;DHT22;9921;47.186;9.778;2022-07-29T03:05:05;17.30;99.90
19552;DHT22;9921;47.186;9.778;2022-07-29T03:07:33;17.40;99.90
19552;DHT22;9921;47.186;9.778;2022-07-29T03:10:02;17.40;99.90
19552;DHT22;9921;47.186;9.778;2022-07-29T03:12:30;17.30;99.90
19552;DHT22;9921;47.186;9.778;2022-07-29T03:14:58;17.30;99.90
19552;DHT22;9921;47.186;9.778;2022-07-29T03:17:26;17.20;99.90
19552;DHT22;9921;47.186;9.778;2022-07-29T03:19:53;17.30;99.90
19552;DHT22;9921;47.186;9.778;2022-07-29T03:22:22;17.30;99.90
19552;DHT22;9921;47.186;9.778;2022-07-29T03:24:50;17.30;99.90
19552;DHT22;9921;47.186;9.778;2022-07-29T03:27:17;17.20;99.90
19552;DHT22;9921;47.186;9.778;2022-07-29T03:29:44;17.10;99.90
19552;DHT22;9921;47.186;9.778;2022-07-29T03:32:10;17.00;99.90
19552;DHT22;9921;47.186;9.778;2022-07-29T03:34:38;17.10;99.90
19552;DHT22;9921;47.186;9.778;2022-07-29T03:37:05;17.10;99.90
19552;DHT22;9921;47.186;9.778;2022-07-29T03:39:38;17.20;99.90
19552;DHT22;9921;47.186;9.778;2022-07-29T03:42:07;17.20;99.90
19552;DHT22;9921;47.186;9.778;2022-07-29T03:44:35;17.30;99.90
19552;DHT22;9921;47.186;9.778;2022-07-29T03:47:04;17.30;99.90
19552;DHT22;9921;47.186;9.778;2022-07-29T03:49:34;17.30;99.90
19552;DHT22;9921;47.186;9.778;2022-07-29T03:52:03;17.10;99.90
19552;DHT22;9921;47.186;9.778;2022-07-29T03:54:31;17.10;99.90
19552;DHT22;9921;47.186;9.778;2022-07-29T03:57:01;17.20;99.90
19552;DHT22;9921;47.186;9.778;2022-07-29T03:59:28;17.20;99.90
19552;DHT22;9921;47.186;9.778;2022-07-29T04:01:57;17.20;99.90
19552;DHT22;9921;47.186;9.778;2022-07-29T04:04:24;17.20;99.90
19552;DHT22;9921;47.186;9.778;2022-07-29T04:06:51;17.10;99.90
19552;DHT22;9921;47.186;9.778;2022-07-29T04:09:18;16.90;99.90
19552;DHT22;9921;47.186;9.778;2022-07-29T04:11:46;16.80;99.90
19552;DHT22;9921;47.186;9.778;2022-07-29T04:14:14;16.90;99.90
19552;DHT22;9921;47.186;9.778;2022-07-29T04:16:41;17.00;99.90
19552;DHT22;9921;47.186;9.778;2022-07-29T04:19:08;17.00;99.90
19552;DHT22;9921;47.186;9.778;2022-07-29T04:21:37;17.10;99.90
19552;DHT22;9921;47.186;9.778;2022-07-29T04:24:04;17.10;99.90
19552;DHT22;9921;47.186;9.778;2022-07-29T04:26:32;17.10;99.90
19552;DHT22;9921;47.186;9.778;2022-07-29T04:28:59;17.10;99.90
19552;DHT22;9921;47.186;9.778;2022-07-29T04:31:27;16.90;99.90
19552;DHT22;9921;47.186;9.778;2022-07-29T04:33:54;16.80;99.90
19552;DHT22;9921;47.186;9.778;2022-07-29T04:36:21;16.90;99.90
19552;DHT22;9921;47.186;9.778;2022-07-29T04:38:48;16.90;99.90
19552;DHT22;9921;47.186;9.778;2022-07-29T04:41:15;17.00;99.90
19552;DHT22;9921;47.186;9.778;2022-07-29T04:43:42;17.00;99.90
19552;DHT22;9921;47.186;9.778;2022-07-29T04:46:08;17.10;99.90
19552;DHT22;9921;47.186;9.778;2022-07-29T04:48:37;17.00;99.90
19552;DHT22;9921;47.186;9.778;2022-07-29T04:51:03;16.80;99.90
19552;DHT22;9921;47.186;9.778;2022-07-29T04:53:30;16.80;99.90
19552;DHT22;9921;47.186;9.778;2022-07-29T04:55:57;16.90;99.90
19552;DHT22;9921;47.186;9.778;2022-07-29T04:58:24;16.90;99.90
19552;DHT22;9921;47.186;9.778;2022-07-29T05:00:51;17.00;99.90
19552;DHT22;9921;47.186;9.778;2022-07-29T05:03:18;17.10;99.90
19552;DHT22;9921;47.186;9.778;2022-07-29T05:05:47;17.20;99.90
19552;DHT22;9921;47.186;9.778;2022-07-29T05:08:14;17.20;99.90
19552;DHT22;9921;47.186;9.778;2022-07-29T05:10:40;17.20;99.90
19552;DHT22;9921;47.186;9.778;2022-07-29T05:13:07;17.30;99.90
19552;DHT22;9921;47.186;9.778;2022-07-29T05:15:36;17.30;99.90
19552;DHT22;9921;47.186;9.778;2022-07-29T05:18:04;17.30;99.90
19552;DHT22;9921;47.186;9.778;2022-07-29T05:20:31;17.40;99.90
19552;DHT22;9921;47.186;9.778;2022-07-29T05:23:01;17.60;99.90
19552;DHT22;9921;47.186;9.778;2022-07-29T05:25:29;17.70;99.90
19552;DHT22;9921;47.186;9.778;2022-07-29T05:27:56;17.90;99.90
19552;DHT22;9921;47.186;9.778;2022-07-29T05:30:23;18.00;99.90
19552;DHT22;9921;47.186;9.778;2022-07-29T05:32:50;18.10;99.90
19552;DHT22;9921;47.186;9.778;2022-07-29T05:35:17;18.20;99.90
19552;DHT22;9921;47.186;9.778;2022-07-29T05:37:44;18.20;99.90
19552;DHT22;9921;47.186;9.778;2022-07-29T05:40:12;18.20;99.90
19552;DHT22;9921;47.186;9.778;2022-07-29T05:42:39;18.30;99.90
19552;DHT22;9921;47.186;9.778;2022-07-29T05:45:07;18.40;99.90
19552;DHT22;9921;47.186;9.778;2022-07-29T05:47:34;18.40;99.90
19552;DHT22;9921;47.186;9.778;2022-07-29T05:50:01;18.50;99.90
19552;DHT22;9921;47.186;9.778;2022-07-29T05:52:28;18.60;99.90
19552;DHT22;9921;47.186;9.778;2022-07-29T05:54:55;18.60;99.90
19552;DHT22;9921;47.186;9.778;2022-07-29T05:57:24;18.70;99.90
19552;DHT22;9921;47.186;9.778;2022-07-29T05:59:51;18.70;99.90
19552;DHT22;9921;47.186;9.778;2022-07-29T06:02:18;18.70;99.90
19552;DHT22;9921;47.186;9.778;2022-07-29T06:04:45;18.70;99.90
19552;DHT22;9921;47.186;9.778;2022-07-29T06:07:12;18.70;99.90
19552;DHT22;9921;47.186;9.778;2022-07-29T06:09:39;18.50;99.90
19552;DHT22;9921;47.186;9.778;2022-07-29T06:12:06;18.30;99.90
19552;DHT22;9921;47.186;9.778;2022-07-29T06:14:34;18.30;99.90
19552;DHT22;9921;47.186;9.778;2022-07-29T06:17:03;18.30;99.90
19552;DHT22;9921;47.186;9.778;2022-07-29T06:19:30;18.40;99.90
19552;DHT22;9921;47.186;9.778;2022-07-29T06:21:57;18.40;99.90
19552;DHT22;9921;47.186;9.778;2022-07-29T06:24:24;18.40;99.90
19552;DHT22;9921;47.186;9.778;2022-07-29T06:26:51;18.50;99.90
19552;DHT22;9921;47.186;9.778;2022-07-29T06:29:18;18.60;99.90
19552;DHT22;9921;47.186;9.778;2022-07-29T06:31:46;18.60;99.90
19552;DHT22;9921;47.186;9.778;2022-07-29T06:34:13;18.60;99.90
19552;DHT22;9921;47.186;9.778;2022-07-29T06:36:40;18.70;99.90
19552;DHT22;9921;47.186;9.778;2022-07-29T06:39:08;18.80;99.90
19552;DHT22;9921;47.186;9.778;2022-07-29T06:41:35;18.80;99.90
19552;DHT22;9921;47.186;9.778;2022-07-29T06:44:02;18.80;99.90
19552;DHT22;9921;47.186;9.778;2022-07-29T06:46:30;18.80;99.90
19552;DHT22;9921;47.186;9.778;2022-07-29T06:48:59;18.90;99.90
19552;DHT22;9921;47.186;9.778;2022-07-29T06:51:27;19.00;99.90
19552;DHT22;9921;47.186;9.778;2022-07-29T06:53:54;19.10;99.90
19552;DHT22;9921;47.186;9.778;2022-07-29T06:56:23;19.20;99.90
19552;DHT22;9921;47.186;9.778;2022-07-29T06:58:50;19.30;99.90
19552;DHT22;9921;47.186;9.778;2022-07-29T07:01:17;19.20;99.90
19552;DHT22;9921;47.186;9.778;2022-07-29T07:03:45;19.30;99.90
19552;DHT22;9921;47.186;9.778;2022-07-29T07:06:13;19.40;99.90
19552;DHT22;9921;47.186;9.778;2022-07-29T07:08:40;19.40;99.90
19552;DHT22;9921;47.186;9.778;2022-07-29T07:11:07;19.50;99.90
19552;DHT22;9921;47.186;9.778;2022-07-29T07:13:34;19.50;99.90
19552;DHT22;9921;47.186;9.778;2022-07-29T07:16:01;19.60;99.90
19552;DHT22;9921;47.186;9.778;2022-07-29T07:18:28;19.70;99.90
19552;DHT22;9921;47.186;9.778;2022-07-29T07:20:55;19.70;99.90
19552;DHT22;9921;47.186;9.778;2022-07-29T07:23:24;19.80;99.90
19552;DHT22;9921;47.186;9.778;2022-07-29T07:25:51;19.80;99.90
19552;DHT22;9921;47.186;9.778;2022-07-29T07:28:18;19.80;99.90
19552;DHT22;9921;47.186;9.778;2022-07-29T07:30:45;19.80;99.90
19552;DHT22;9921;47.186;9.778;2022-07-29T07:33:12;19.90;99.90
19552;DHT22;9921;47.186;9.778;2022-07-29T07:35:40;19.90;99.90
19552;DHT22;9921;47.186;9.778;2022-07-29T07:38:07;20.10;99.90
19552;DHT22;9921;47.186;9.778;2022-07-29T07:40:35;20.00;99.90
19552;DHT22;9921;47.186;9.778;2022-07-29T07:43:02;19.90;99.90
19552;DHT22;9921;47.186;9.778;2022-07-29T07:45:29;20.10;99.90
19552;DHT22;9921;47.186;9.778;2022-07-29T07:47:57;20.10;99.90
19552;DHT22;9921;47.186;9.778;2022-07-29T07:50:24;20.10;99.90
19552;DHT22;9921;47.186;9.778;2022-07-29T07:52:53;20.20;99.90
19552;DHT22;9921;47.186;9.778;2022-07-29T07:55:20;20.40;99.90
19552;DHT22;9921;47.186;9.778;2022-07-29T07:57:49;20.60;99.90
19552;DHT22;9921;47.186;9.778;2022-07-29T08:00:16;20.70;99.90
19552;DHT22;9921;47.186;9.778;2022-07-29T08:02:43;20.70;99.90
19552;DHT22;9921;47.186;9.778;2022-07-29T08:05:11;20.80;99.90
19552;DHT22;9921;47.186;9.778;2022-07-29T08:07:42;20.90;99.90
19552;DHT22;9921;47.186;9.778;2022-07-29T08:10:10;21.10;99.90
19552;DHT22;9921;47.186;9.778;2022-07-29T08:12:37;21.20;99.90
19552;DHT22;9921;47.186;9.778;2022-07-29T08:15:06;21.30;99.90
19552;DHT22;9921;47.186;9.778;2022-07-29T08:17:34;21.20;99.90
19552;DHT22;9921;47.186;9.778;2022-07-29T08:20:01;21.10;99.90
19552;DHT22;9921;47.186;9.778;2022-07-29T08:22:28;20.90;99.90
19552;DHT22;9921;47.186;9.778;2022-07-29T08:24:55;20.80;99.90
19552;DHT22;9921;47.186;9.778;2022-07-29T08:27:22;20.70;99.90
19552;DHT22;9921;47.186;9.778;2022-07-29T08:29:49;20.60;99.90
19552;DHT22;9921;47.186;9.778;2022-07-29T08:32:17;20.50;99.90
19552;DHT22;9921;47.186;9.778;2022-07-29T08:34:44;20.50;99.90
19552;DHT22;9921;47.186;9.778;2022-07-29T08:37:12;20.50;99.90
19552;DHT22;9921;47.186;9.778;2022-07-29T08:39:39;20.60;99.90
19552;DHT22;9921;47.186;9.778;2022-07-29T08:42:07;20.50;99.90
19552;DHT22;9921;47.186;9.778;2022-07-29T08:44:35;20.60;99.90
19552;DHT22;9921;47.186;9.778;2022-07-29T08:47:02;20.70;99.90
19552;DHT22;9921;47.186;9.778;2022-07-29T08:49:33;20.90;99.90
19552;DHT22;9921;47.186;9.778;2022-07-29T08:52:00;21.10;99.90
19552;DHT22;9921;47.186;9.778;2022-07-29T08:54:27;21.30;99.90
19552;DHT22;9921;47.186;9.778;2022-07-29T08:56:55;21.50;99.90
19552;DHT22;9921;47.186;9.778;2022-07-29T08:59:24;21.70;99.90
19552;DHT22;9921;47.186;9.778;2022-07-29T09:01:53;21.80;99.90
19552;DHT22;9921;47.186;9.778;2022-07-29T09:04:21;21.80;99.90
19552;DHT22;9921;47.186;9.778;2022-07-29T09:06:54;21.80;99.90
19552;DHT22;9921;47.186;9.778;2022-07-29T09:09:23;21.70;99.90
19552;DHT22;9921;47.186;9.778;2022-07-29T09:11:50;21.70;99.90
19552;DHT22;9921;47.186;9.778;2022-07-29T09:14:18;21.70;99.90
19552;DHT22;9921;47.186;9.778;2022-07-29T09:16:47;21.70;99.90
19552;DHT22;9921;47.186;9.778;2022-07-29T09:19:26;21.80;99.90
19552;DHT22;9921;47.186;9.778;2022-07-29T09:21:56;21.90;99.90
19552;DHT22;9921;47.186;9.778;2022-07-29T09:24:35;21.90;99.90
19552;DHT22;9921;47.186;9.778;2022-07-29T09:27:12;21.90;99.90
19552;DHT22;9921;47.186;9.778;2022-07-29T09:29:44;22.00;99.90
19552;DHT22;9921;47.186;9.778;2022-07-29T09:32:11;22.10;99.90
19552;DHT22;9921;47.186;9.778;2022-07-29T09:34:38;22.20;99.90
19552;DHT22;9921;47.186;9.778;2022-07-29T09:37:06;22.30;99.90
19552;DHT22;9921;47.186;9.778;2022-07-29T09:39:34;22.40;99.90
19552;DHT22;9921;47.186;9.778;2022-07-29T09:42:03;22.50;99.90
19552;DHT22;9921;47.186;9.778;2022-07-29T09:44:44;22.70;99.90
19552;DHT22;9921;47.186;9.778;2022-07-29T09:47:11;23.00;99.90
19552;DHT22;9921;47.186;9.778;2022-07-29T09:49:51;23.30;99.90
19552;DHT22;9921;47.186;9.778;2022-07-29T09:52:19;23.70;99.90
19552;DHT22;9921;47.186;9.778;2022-07-29T09:54:47;24.00;99.90
19552;DHT22;9921;47.186;9.778;2022-07-29T09:57:25;24.30;99.90
19552;DHT22;9921;47.186;9.778;2022-07-29T10:00:00;24.50;99.90
19552;DHT22;9921;47.186;9.778;2022-07-29T10:02:33;24.60;99.90
19552;DHT22;9921;47.186;9.778;2022-07-29T10:05:02;24.50;99.90
19552;DHT22;9921;47.186;9.778;2022-07-29T10:07:45;24.50;99.90
19552;DHT22;9921;47.186;9.778;2022-07-29T10:10:19;24.70;99.90
19552;DHT22;9921;47.186;9.778;2022-07-29T10:12:49;24.70;99.90
19552;DHT22;9921;47.186;9.778;2022-07-29T10:15:17;24.80;99.90
19552;DHT22;9921;47.186;9.778;2022-07-29T10:17:45;24.90;99.90
19552;DHT22;9921;47.186;9.778;2022-07-29T10:20:13;25.10;99.90
19552;DHT22;9921;47.186;9.778;2022-07-29T10:22:40;25.20;99.90
19552;DHT22;9921;47.186;9.778;2022-07-29T10:25:09;25.30;99.90
19552;DHT22;9921;47.186;9.778;2022-07-29T10:27:37;25.50;99.90
19552;DHT22;9921;47.186;9.778;2022-07-29T10:30:05;25.50;99.90
19552;DHT22;9921;47.186;9.778;2022-07-29T10:33:06;25.60;99.90
19552;DHT22;9921;47.186;9.778;2022-07-29T10:35:57;25.70;99.90
19552;DHT22;9921;47.186;9.778;2022-07-29T10:38:45;25.70;99.90
19552;DHT22;9921;47.186;9.778;2022-07-29T10:41:52;25.80;99.90
19552;DHT22;9921;47.186;9.778;2022-07-29T10:44:22;25.90;99.90
19552;DHT22;9921;47.186;9.778;2022-07-29T10:46:51;26.00;99.90
19552;DHT22;9921;47.186;9.778;2022-07-29T10:49:19;26.10;99.90
19552;DHT22;9921;47.186;9.778;2022-07-29T10:51:59;26.30;99.90
19552;DHT22;9921;47.186;9.778;2022-07-29T10:54:47;26.40;99.90
19552;DHT22;9921;47.186;9.778;2022-07-29T10:57:20;26.50;99.90
19552;DHT22;9921;47.186;9.778;2022-07-29T10:59:48;26.60;99.90
19552;DHT22;9921;47.186;9.778;2022-07-29T11:02:40;26.70;99.90
19552;DHT22;9921;47.186;9.778;2022-07-29T11:05:10;26.80;99.90
19552;DHT22;9921;47.186;9.778;2022-07-29T11:07:38;26.90;99.90
19552;DHT22;9921;47.186;9.778;2022-07-29T11:10:22;27.10;99.90
19552;DHT22;9921;47.186;9.778;2022-07-29T11:12:51;27.20;99.90
19552;DHT22;9921;47.186;9.778;2022-07-29T11:15:20;27.30;99.90
19552;DHT22;9921;47.186;9.778;2022-07-29T11:18:07;27.50;99.90
19552;DHT22;9921;47.186;9.778;2022-07-29T11:20:36;27.70;99.90
19552;DHT22;9921;47.186;9.778;2022-07-29T11:23:24;27.80;99.90
19552;DHT22;9921;47.186;9.778;2022-07-29T11:26:14;27.90;99.90
19552;DHT22;9921;47.186;9.778;2022-07-29T11:28:51;28.10;99.90
19552;DHT22;9921;47.186;9.778;2022-07-29T11:31:33;28.20;99.90
19552;DHT22;9921;47.186;9.778;2022-07-29T11:34:18;28.30;99.90
19552;DHT22;9921;47.186;9.778;2022-07-29T11:37:17;28.60;99.90
19552;DHT22;9921;47.186;9.778;2022-07-29T11:39:45;28.70;99.90
19552;DHT22;9921;47.186;9.778;2022-07-29T11:45:31;28.90;99.90
19552;DHT22;9921;47.186;9.778;2022-07-29T11:48:18;29.00;99.90
19552;DHT22;9921;47.186;9.778;2022-07-29T11:50:45;29.00;99.90
19552;DHT22;9921;47.186;9.778;2022-07-29T11:53:13;29.00;99.90
19552;DHT22;9921;47.186;9.778;2022-07-29T11:55:40;28.90;99.90
19552;DHT22;9921;47.186;9.778;2022-07-29T11:58:08;28.90;99.90
19552;DHT22;9921;47.186;9.778;2022-07-29T12:00:38;28.80;99.90
19552;DHT22;9921;47.186;9.778;2022-07-29T12:03:08;28.70;99.90
19552;DHT22;9921;47.186;9.778;2022-07-29T12:05:40;28.60;99.90
19552;DHT22;9921;47.186;9.778;2022-07-29T12:08:09;28.70;99.90
19552;DHT22;9921;47.186;9.778;2022-07-29T12:10:36;28.50;99.90
19552;DHT22;9921;47.186;9.778;2022-07-29T12:13:04;28.40;99.90
19552;DHT22;9921;47.186;9.778;2022-07-29T12:15:31;28.50;99.90
19552;DHT22;9921;47.186;9.778;2022-07-29T12:18:09;28.40;99.90
19552;DHT22;9921;47.186;9.778;2022-07-29T12:20:36;28.50;99.90
19552;DHT22;9921;47.186;9.778;2022-07-29T12:23:05;28.30;99.90
19552;DHT22;9921;47.186;9.778;2022-07-29T12:25:34;28.00;99.90
19552;DHT22;9921;47.186;9.778;2022-07-29T12:28:04;27.90;99.90
19552;DHT22;9921;47.186;9.778;2022-07-29T12:30:37;27.50;99.90
19552;DHT22;9921;47.186;9.778;2022-07-29T12:33:16;27.20;99.90
19552;DHT22;9921;47.186;9.778;2022-07-29T12:35:45;27.10;99.90
19552;DHT22;9921;47.186;9.778;2022-07-29T12:38:13;26.90;99.90
19552;DHT22;9921;47.186;9.778;2022-07-29T12:40:40;26.90;99.90
19552;DHT22;9921;47.186;9.778;2022-07-29T12:43:08;26.90;99.90
19552;DHT22;9921;47.186;9.778;2022-07-29T12:45:36;26.70;99.90
19552;DHT22;9921;47.186;9.778;2022-07-29T12:48:04;26.60;99.90
19552;DHT22;9921;47.186;9.778;2022-07-29T12:50:36;26.60;99.90
19552;DHT22;9921;47.186;9.778;2022-07-29T12:53:10;26.60;99.90
19552;DHT22;9921;47.186;9.778;2022-07-29T12:55:42;26.50;99.90
19552;DHT22;9921;47.186;9.778;2022-07-29T12:58:10;26.40;99.90
19552;DHT22;9921;47.186;9.778;2022-07-29T13:00:37;26.40;99.90
19552;DHT22;9921;47.186;9.778;2022-07-29T13:03:04;26.40;99.90
19552;DHT22;9921;47.186;9.778;2022-07-29T13:05:44;26.50;99.90
19552;DHT22;9921;47.186;9.778;2022-07-29T13:08:12;26.40;99.90
19552;DHT22;9921;47.186;9.778;2022-07-29T13:10:40;26.20;99.90
19552;DHT22;9921;47.186;9.778;2022-07-29T13:13:08;26.10;99.90
19552;DHT22;9921;47.186;9.778;2022-07-29T13:15:36;25.90;99.90
19552;DHT22;9921;47.186;9.778;2022-07-29T13:18:03;25.80;99.90
19552;DHT22;9921;47.186;9.778;2022-07-29T13:20:30;25.70;99.90
19552;DHT22;9921;47.186;9.778;2022-07-29T13:22:59;25.60;99.90
19552;DHT22;9921;47.186;9.778;2022-07-29T13:25:28;25.60;99.90
19552;DHT22;9921;47.186;9.778;2022-07-29T13:27:55;25.50;99.90
19552;DHT22;9921;47.186;9.778;2022-07-29T13:30:23;25.40;99.90
19552;DHT22;9921;47.186;9.778;2022-07-29T13:32:50;25.20;99.90
19552;DHT22;9921;47.186;9.778;2022-07-29T13:35:18;25.10;99.90
19552;DHT22;9921;47.186;9.778;2022-07-29T13:37:45;24.90;99.90
19552;DHT22;9921;47.186;9.778;2022-07-29T13:40:13;24.70;99.90
19552;DHT22;9921;47.186;9.778;2022-07-29T13:42:41;24.50;99.90
19552;DHT22;9921;47.186;9.778;2022-07-29T13:45:09;24.30;99.90
19552;DHT22;9921;47.186;9.778;2022-07-29T13:47:37;24.20;99.90
19552;DHT22;9921;47.186;9.778;2022-07-29T13:50:06;24.10;99.90
19552;DHT22;9921;47.186;9.778;2022-07-29T13:52:33;24.00;99.90
19552;DHT22;9921;47.186;9.778;2022-07-29T13:55:00;23.90;99.90
19552;DHT22;9921;47.186;9.778;2022-07-29T13:57:29;23.80;99.90
19552;DHT22;9921;47.186;9.778;2022-07-29T13:59:56;23.60;99.90
19552;DHT22;9921;47.186;9.778;2022-07-29T14:02:23;23.50;99.90
19552;DHT22;9921;47.186;9.778;2022-07-29T14:04:50;23.40;99.90
19552;DHT22;9921;47.186;9.778;2022-07-29T14:07:17;23.30;99.90
19552;DHT22;9921;47.186;9.778;2022-07-29T14:09:44;23.10;99.90
19552;DHT22;9921;47.186;9.778;2022-07-29T14:12:11;23.00;99.90
19552;DHT22;9921;47.186;9.778;2022-07-29T14:14:40;22.70;99.90
19552;DHT22;9921;47.186;9.778;2022-07-29T14:17:07;22.60;99.90
19552;DHT22;9921;47.186;9.778;2022-07-29T14:19:34;22.50;99.90
19552;DHT22;9921;47.186;9.778;2022-07-29T14:22:03;22.30;99.90
19552;DHT22;9921;47.186;9.778;2022-07-29T14:24:31;22.20;99.90
19552;DHT22;9921;47.186;9.778;2022-07-29T14:26:58;22.10;99.90
19552;DHT22;9921;47.186;9.778;2022-07-29T14:29:25;22.00;99.90
19552;DHT22;9921;47.186;9.778;2022-07-29T14:31:53;22.10;99.90
19552;DHT22;9921;47.186;9.778;2022-07-29T14:34:20;22.10;99.90
19552;DHT22;9921;47.186;9.778;2022-07-29T14:36:47;22.10;99.90
19552;DHT22;9921;47.186;9.778;2022-07-29T14:39:14;22.20;99.90
19552;DHT22;9921;47.186;9.778;2022-07-29T14:41:42;22.30;99.90
19552;DHT22;9921;47.186;9.778;2022-07-29T14:44:08;22.20;99.90
19552;DHT22;9921;47.186;9.778;2022-07-29T14:46:35;22.20;99.90
19552;DHT22;9921;47.186;9.778;2022-07-29T14:49:04;22.20;99.90
19552;DHT22;9921;47.186;9.778;2022-07-29T14:51:31;22.20;99.90
19552;DHT22;9921;47.186;9.778;2022-07-29T14:53:59;22.20;99.90
19552;DHT22;9921;47.186;9.778;2022-07-29T14:56:26;22.10;99.90
19552;DHT22;9921;47.186;9.778;2022-07-29T14:58:55;22.10;99.90
19552;DHT22;9921;47.186;9.778;2022-07-29T15:01:22;22.10;99.90
19552;DHT22;9921;47.186;9.778;2022-07-29T15:03:49;22.10;99.90
19552;DHT22;9921;47.186;9.778;2022-07-29T15:06:18;22.00;99.90
19552;DHT22;9921;47.186;9.778;2022-07-29T15:08:45;22.00;99.90
19552;DHT22;9921;47.186;9.778;2022-07-29T15:11:12;22.00;99.90
19552;DHT22;9921;47.186;9.778;2022-07-29T15:13:38;22.00;99.90
19552;DHT22;9921;47.186;9.778;2022-07-29T15:16:06;22.10;99.90
19552;DHT22;9921;47.186;9.778;2022-07-29T15:18:33;22.00;99.90
19552;DHT22;9921;47.186;9.778;2022-07-29T15:21:00;21.90;99.90
19552;DHT22;9921;47.186;9.778;2022-07-29T15:23:29;21.80;99.90
19552;DHT22;9921;47.186;9.778;2022-07-29T15:25:56;21.70;99.90
19552;DHT22;9921;47.186;9.778;2022-07-29T15:28:22;21.70;99.90
19552;DHT22;9921;47.186;9.778;2022-07-29T15:30:49;21.80;99.90
19552;DHT22;9921;47.186;9.778;2022-07-29T15:33:16;21.60;99.90
19552;DHT22;9921;47.186;9.778;2022-07-29T15:35:43;21.60;99.90
19552;DHT22;9921;47.186;9.778;2022-07-29T15:38:10;21.60;99.90
19552;DHT22;9921;47.186;9.778;2022-07-29T15:40:40;21.60;99.90
19552;DHT22;9921;47.186;9.778;2022-07-29T15:43:08;21.60;99.90
19552;DHT22;9921;47.186;9.778;2022-07-29T15:45:36;21.50;99.90
19552;DHT22;9921;47.186;9.778;2022-07-29T15:48:04;21.30;99.90
19552;DHT22;9921;47.186;9.778;2022-07-29T15:50:32;21.40;99.90
19552;DHT22;9921;47.186;9.778;2022-07-29T15:52:59;21.40;99.90
19552;DHT22;9921;47.186;9.778;2022-07-29T15:55:26;21.40;99.90
19552;DHT22;9921;47.186;9.778;2022-07-29T15:57:54;21.40;99.90
19552;DHT22;9921;47.186;9.778;2022-07-29T16:00:21;21.40;99.90
19552;DHT22;9921;47.186;9.778;2022-07-29T16:02:49;21.50;99.90
19552;DHT22;9921;47.186;9.778;2022-07-29T16:05:16;21.40;99.90